»·PEaware :: N310PR KBUR-KLAS

N310PR :: KBUR-KLAS

FLIGHT INFORMATION

Flight Status: Arrived
Operator: Privately registered:
United States
More flights under this callsign
Pilot: John M. (9732)
Aircraft: CESSNA 310
(C310)
More flights by this aircraft type
Origin: KBUR Bob Hope-Burbank
United States
Destination: KLAS McCarran Intl
United States
More flights between these airports :: More routes between these airports
Route: +VNY3 DAG CRESO4
File this flight plan on PilotEdge
Remarks: I-5 rating
Altitude:
(Current/Filed)
13,000ft
Speed:
(Current/Filed)
140kts
Departed: 02-Dec-17 06:50 PM
Arrived: 02-Dec-17 08:14 PM
Distance/Time
Traveled:
193nm/1:24
Distance/Time
To Go:
Arrived

Flight Plot

Page will automatically refresh every two minutes.

Flight plan parsing failed; only flown route is shown


Map Options




Map Legend


Flown Route
Filed Route
Departure Airport
Arrival Airport
Navaid (VOR, NDB)
Fix

Horizontal Profiles

Position Reports

Time Latitude Longitude Heading Altitude Ground
Speed
02-Dec-17 18:38 34.200020 -118.365843 0 724ft 0kts
02-Dec-17 18:39 34.200020 -118.365843 0 724ft 0kts
02-Dec-17 18:40 34.200020 -118.365843 0 724ft 0kts
02-Dec-17 18:41 34.200020 -118.365843 0 724ft 0kts
02-Dec-17 18:42 34.200020 -118.365843 0 724ft 0kts
02-Dec-17 18:43 34.200020 -118.365843 0 724ft 0kts
02-Dec-17 18:44 34.200020 -118.365843 0 724ft 0kts
02-Dec-17 18:45 34.200020 -118.365843 0 724ft 0kts
02-Dec-17 18:46 34.200020 -118.365843 0 724ft 0kts
02-Dec-17 18:47 34.200020 -118.365843 0 724ft 0kts
02-Dec-17 18:48 34.200020 -118.365843 0 724ft 0kts
02-Dec-17 18:49 34.200020 -118.365843 0 724ft 0kts
02-Dec-17 18:50 34.199903 -118.366083 142 724ft 2kts
02-Dec-17 18:51 34.199118 -118.366820 275 724ft 8kts
02-Dec-17 18:52 34.199013 -118.368992 200 724ft 4kts
02-Dec-17 18:53 34.198965 -118.369011 196 724ft 1kts
02-Dec-17 18:54 34.197865 -118.368684 84 724ft 10kts
02-Dec-17 18:55 34.197211 -118.336413 93 1629ft 116kts
02-Dec-17 18:56 34.173830 -118.322232 223 2714ft 114kts
02-Dec-17 18:57 34.155368 -118.342891 229 3698ft 109kts
02-Dec-17 18:58 34.131494 -118.367899 234 4582ft 110kts
02-Dec-17 18:59 34.138982 -118.390480 350 5407ft 99kts
02-Dec-17 19:00 34.166849 -118.387467 354 6147ft 100kts
02-Dec-17 19:01 34.192881 -118.384693 345 7086ft 93kts
02-Dec-17 19:02 34.218569 -118.387871 345 8004ft 90kts
02-Dec-17 19:03 34.243599 -118.390295 347 8863ft 91kts
02-Dec-17 19:04 34.268884 -118.393650 350 9532ft 98kts
02-Dec-17 19:05 34.295254 -118.395598 356 10150ft 96kts
02-Dec-17 19:06 34.321394 -118.384910 5 10693ft 98kts
02-Dec-17 19:07 34.347928 -118.372216 9 11305ft 102kts
02-Dec-17 19:08 34.375186 -118.361305 4 12031ft 108kts
02-Dec-17 19:09 34.403681 -118.350610 4 12834ft 108kts
02-Dec-17 19:10 34.436779 -118.339245 4 13023ft 137kts
02-Dec-17 19:11 34.473336 -118.318695 41 12974ft 166kts
02-Dec-17 19:12 34.501179 -118.272498 44 12921ft 168kts
02-Dec-17 19:13 34.528927 -118.227909 44 12992ft 166kts
02-Dec-17 19:14 34.556970 -118.183054 44 13017ft 167kts
02-Dec-17 19:15 34.585081 -118.138021 44 13055ft 167kts
02-Dec-17 19:16 34.613078 -118.093113 44 13080ft 167kts
02-Dec-17 19:17 34.633787 -118.042798 82 13087ft 180kts
02-Dec-17 19:18 34.640289 -117.981948 75 13044ft 182kts
02-Dec-17 19:19 34.646967 -117.921522 75 13040ft 179kts
02-Dec-17 19:20 34.653530 -117.861315 76 13010ft 181kts
02-Dec-17 19:21 34.660154 -117.800256 76 13167ft 183kts
02-Dec-17 19:22 34.669938 -117.740617 65 13259ft 179kts
02-Dec-17 19:23 34.685015 -117.682153 66 13151ft 181kts
02-Dec-17 19:24 34.700027 -117.623571 65 13071ft 181kts
02-Dec-17 19:25 34.714900 -117.565422 65 13003ft 180kts
02-Dec-17 19:26 34.729813 -117.507010 66 12924ft 181kts
02-Dec-17 19:27 34.744747 -117.448363 66 12860ft 182kts
02-Dec-17 19:28 34.759618 -117.389834 66 12836ft 181kts
02-Dec-17 19:29 34.774510 -117.331144 74 13011ft 181kts
02-Dec-17 19:30 34.788114 -117.277280 74 12992ft 154kts
02-Dec-17 19:31 34.802381 -117.220860 74 13016ft 180kts
02-Dec-17 19:32 34.816625 -117.164456 74 13107ft 174kts
02-Dec-17 19:33 34.830965 -117.107280 74 13253ft 178kts
02-Dec-17 19:34 34.845221 -117.050453 74 13335ft 175kts
02-Dec-17 19:35 34.859529 -116.993239 74 13554ft 177kts
02-Dec-17 19:36 34.873695 -116.936594 74 13725ft 175kts
02-Dec-17 19:37 34.887595 -116.880685 72 13738ft 163kts
02-Dec-17 19:38 34.900140 -116.830180 74 13429ft 166kts
02-Dec-17 19:39 34.913521 -116.776058 74 13476ft 170kts
02-Dec-17 19:40 34.927149 -116.721182 74 13581ft 172kts
02-Dec-17 19:41 34.941131 -116.664534 74 13727ft 180kts
02-Dec-17 19:42 34.957116 -116.599733 74 13143ft 200kts
02-Dec-17 19:43 34.979274 -116.539167 60 12709ft 186kts
02-Dec-17 19:44 35.003501 -116.485607 61 12695ft 173kts
02-Dec-17 19:45 35.025632 -116.435883 61 12774ft 161kts
02-Dec-17 19:46 35.047328 -116.387038 61 12829ft 170kts
02-Dec-17 19:47 35.069637 -116.336641 61 12982ft 168kts
02-Dec-17 19:48 35.092668 -116.284601 61 13137ft 177kts
02-Dec-17 19:49 35.115574 -116.232711 61 13238ft 177kts
02-Dec-17 19:50 35.138508 -116.180610 61 13160ft 178kts
02-Dec-17 19:51 35.162091 -116.127061 61 13147ft 178kts
02-Dec-17 19:52 35.185187 -116.074292 61 13013ft 173kts
02-Dec-17 19:53 35.208627 -116.021027 61 12758ft 187kts
02-Dec-17 19:54 35.233550 -115.964127 61 12679ft 192kts
02-Dec-17 19:55 35.259498 -115.904850 61 12446ft 201kts
02-Dec-17 19:56 35.286071 -115.843985 62 12271ft 202kts
02-Dec-17 19:57 35.313045 -115.783409 51 12161ft 203kts
02-Dec-17 19:58 35.351270 -115.732861 45 12116ft 202kts
02-Dec-17 19:59 35.389291 -115.682238 45 12245ft 199kts
02-Dec-17 20:00 35.428226 -115.630288 46 12092ft 212kts
02-Dec-17 20:01 35.467742 -115.577401 45 11917ft 200kts
02-Dec-17 20:02 35.504578 -115.528082 46 12017ft 195kts
02-Dec-17 20:03 35.541455 -115.478653 46 12248ft 199kts
02-Dec-17 20:04 35.580701 -115.425993 46 12091ft 216kts
02-Dec-17 20:05 35.622689 -115.369476 46 11110ft 225kts
02-Dec-17 20:06 35.664512 -115.313129 47 10307ft 222kts
02-Dec-17 20:07 35.705932 -115.257240 48 9354ft 220kts
02-Dec-17 20:08 35.746644 -115.202212 48 8771ft 214kts
02-Dec-17 20:09 35.787468 -115.147641 41 7931ft 215kts
02-Dec-17 20:10 35.839375 -115.114049 35 7228ft 204kts
02-Dec-17 20:11 35.885648 -115.082561 24 7178ft 182kts
02-Dec-17 20:12 35.930937 -115.058518 22 7214ft 176kts
02-Dec-17 20:13 35.978896 -115.037225 21 6834ft 186kts
02-Dec-17 20:14 36.029339 -115.023328 1 6109ft 182kts
02-Dec-17 20:15 36.070140 -115.024961 335 4848ft 154kts
02-Dec-17 20:16 36.075023 -115.069609 258 3437ft 104kts
02-Dec-17 20:17 36.073579 -115.098324 267 2707ft 98kts
02-Dec-17 20:18 36.073610 -115.133579 268 2118ft 67kts
02-Dec-17 20:19 36.074049 -115.143856 292 2118ft 15kts
02-Dec-17 20:20 36.075460 -115.146359 353 2118ft 7kts
02-Dec-17 20:21 36.076710 -115.146508 356 2118ft 0kts
02-Dec-17 20:22 36.077718 -115.148499 276 2118ft 12kts
02-Dec-17 20:23 36.077924 -115.152747 267 2118ft 14kts
02-Dec-17 20:24 36.077926 -115.156664 267 2118ft 11kts
02-Dec-17 20:25 36.077917 -115.161300 269 2118ft 12kts
02-Dec-17 20:26 36.077965 -115.165627 267 2118ft 13kts
02-Dec-17 20:27 36.077863 -115.169519 268 2118ft 9kts
02-Dec-17 20:28 36.079934 -115.169987 24 2118ft 10kts
02-Dec-17 20:29 36.082579 -115.169582 9 2118ft 5kts
02-Dec-17 20:30 36.083515 -115.169250 327 2118ft 5kts
02-Dec-17 20:31 36.083593 -115.169408 257 2118ft 0kts
02-Dec-17 20:32 36.083593 -115.169408 257 2118ft 0kts
02-Dec-17 20:33 36.083593 -115.169408 257 2118ft 0kts
02-Dec-17 20:34 36.083593 -115.169408 257 2118ft 0kts

Navigation Log

Ident Type
Flight plan parsing failed, navigation log unavailable